LFLS/GNB METAR and TAF weather

Enter ICAO airport designator
Station Type Date Time Source
LFLS METAR 2019/10/14 05:30 UTC NOAA

LFLS 140530Z AUTO VRB02KT CAVOK 14/12 Q1017 BECMG 24013KT


Station Type Date Time Source
LFLS Decoded METAR 2019/10/14 05:30 UTC NOAA

Grenoble / St. Geoirs, France (LFLS) 45-22N 005-20E 386M
Oct 14, 2019 - 01:30 AM EDT / 2019.10.14 0530 UTC
Wind: Variable at 2 MPH (2 KT):0
Visibility: greater than 7 mile(s):0
Temperature: 57 F (14 C)
Dew Point: 53 F (12 C)
Relative Humidity: 87%
Pressure (altimeter): 30.03 in. Hg (1017 hPa)
ob: LFLS 140530Z AUTO VRB02KT CAVOK 14/12 Q1017 BECMG 24013KT
cycle: 5

Station Type Date Time Source
LFLS TAF 2019/10/14 03:37 UTC NOAA

TAF LFLS 140200Z 1403/1503 24013KT CAVOK
TEMPO 1403/1407 VRB03KT PROB30
TEMPO 1417/1421 23015G25KT
BECMG 1422/1424 09005KT

Example: see airport list